Time;durP1;ratioP1;P1;durP2;ratioP2;P2;SDS_P1;SDS_P2;PMS_P1;PMS_P2;Temp;Humidity;BMP_temperature;BMP_pressure;BME280_temperature;BME280_humidity;BME280_pressure;Samples;Min_cycle;Max_cycle;Signal;HPM_P1;HPM_P2
2022/11/08 00:03:58;;;;;;;;;15.25;14.25;;;;;12.46;56.88;99055.88;6246811;27;97134;-62
2022/11/08 00:13:57;;;;;;;;;15.40;14.40;;;;;12.28;56.45;99053.22;6241540;27;96942;-62
2022/11/08 00:17:00;;;;;;;;;15.40;14.00;;;;;12.14;56.62;99061.50;6256821;27;96506;-61
2022/11/08 00:20:04;;;;;;;;;17.20;14.60;;;;;12.05;56.90;99046.66;6251654;27;96261;-61
2022/11/08 00:23:07;;;;;;;;;16.00;14.00;;;;;12.01;57.59;99052.75;6257731;27;96503;-63
2022/11/08 00:26:10;;;;;;;;;14.00;14.00;;;;;11.96;57.57;99049.91;6252445;27;96569;-62
2022/11/08 00:29:15;;;;;;;;;20.00;18.00;;;;;11.83;57.75;99036.53;6234408;27;98533;-61
2022/11/08 00:32:21;;;;;;;;;17.40;16.00;;;;;11.88;58.00;99052.88;6248116;27;96970;-61
2022/11/08 00:35:24;;;;;;;;;17.00;16.00;;;;;11.84;57.86;99057.09;6251410;27;96305;-61
2022/11/08 00:38:28;;;;;;;;;20.00;17.75;;;;;11.83;58.52;99050.03;6240533;27;96572;-62
2022/11/08 00:41:31;;;;;;;;;17.50;16.75;;;;;11.76;57.66;99043.91;6235254;28;97043;-62
2022/11/08 00:44:36;;;;;;;;;17.60;16.00;;;;;11.69;57.83;99039.34;6256220;27;96563;-62
2022/11/08 00:47:40;;;;;;;;;18.40;18.00;;;;;11.52;57.69;99024.81;6259821;27;96573;-61
2022/11/08 00:50:43;;;;;;;;;18.00;17.00;;;;;11.61;57.97;99041.53;6247128;27;96876;-63
2022/11/08 00:53:47;;;;;;;;;19.00;17.00;;;;;11.59;58.01;99038.22;6230710;27;96349;-64
2022/11/08 00:56:50;;;;;;;;;14.80;14.20;;;;;11.57;58.71;99043.88;6243316;27;96608;-62
2022/11/08 00:59:55;;;;;;;;;16.00;15.40;;;;;11.49;58.28;99038.75;6238171;27;96323;-61
2022/11/08 01:06:17;;;;;;;;;20.00;19.60;;;;;11.41;58.46;99035.50;6249617;27;96142;-61
2022/11/08 01:09:21;;;;;;;;;18.00;15.60;;;;;11.21;59.12;99020.34;6247470;27;96782;-61
2022/11/08 01:12:24;;;;;;;;;17.20;15.00;;;;;11.39;59.40;99045.69;6263552;27;96465;-61
2022/11/08 01:15:34;;;;;;;;;17.00;17.00;;;;;11.38;59.75;99039.50;6262706;27;96494;-64
2022/11/08 01:18:38;;;;;;;;;18.40;15.80;;;;;11.28;60.03;99020.28;6252091;27;97182;-63
2022/11/08 01:21:42;;;;;;;;;16.00;16.00;;;;;11.40;59.99;99039.25;6247930;27;96248;-63
2022/11/08 01:24:45;;;;;;;;;18.25;17.00;;;;;11.37;60.08;99040.53;6254733;27;96326;-63
2022/11/08 01:27:49;;;;;;;;;17.20;15.40;;;;;11.37;60.68;99040.53;6233293;27;97316;-62
2022/11/08 01:30:54;;;;;;;;;17.00;15.40;;;;;11.40;60.87;99039.25;6245666;27;96889;-63
2022/11/08 01:33:58;;;;;;;;;17.00;15.80;;;;;11.40;60.06;99039.25;6249533;27;96432;-62
2022/11/08 01:37:01;;;;;;;;;16.50;14.50;;;;;11.38;59.65;99044.06;6255142;27;96240;-62
2022/11/08 01:40:05;;;;;;;;;16.00;14.00;;;;;11.10;60.06;99006.75;6248648;27;96744;-62
2022/11/08 01:43:41;;;;;;;;;17.00;15.33;;;;;11.23;60.80;99039.84;6247448;27;97480;-62
2022/11/08 01:46:47;;;;;;;;;17.00;17.00;;;;;11.18;60.90;99036.16;6246102;27;96514;-63
2022/11/08 01:49:55;;;;;;;;;15.00;14.40;;;;;11.06;60.71;99032.53;6250755;27;96307;-65
2022/11/08 01:52:58;;;;;;;;;18.00;16.00;;;;;11.16;61.03;99035.53;6239984;27;97140;-61
2022/11/08 01:56:02;;;;;;;;;16.00;15.00;;;;;11.15;60.84;99025.78;6251724;27;97098;-61
2022/11/08 01:59:09;;;;;;;;;16.40;14.60;;;;;11.20;60.90;99037.56;6247304;27;96309;-61
2022/11/08 02:02:14;;;;;;;;;16.80;15.80;;;;;11.21;60.77;99033.84;6248632;27;96338;-62
2022/11/08 02:05:25;;;;;;;;;17.00;15.00;;;;;11.21;59.79;99033.84;6235816;27;97354;-62
2022/11/08 02:08:33;;;;;;;;;15.40;14.00;;;;;11.14;59.87;99033.06;6245447;27;97549;-63
2022/11/08 02:11:37;;;;;;;;;17.00;15.00;;;;;11.08;60.27;99025.88;6255932;27;96868;-62
2022/11/08 02:14:40;;;;;;;;;16.00;15.60;;;;;11.03;60.12;99033.81;6246972;27;96541;-62
2022/11/08 02:17:45;;;;;;;;;17.00;15.00;;;;;11.00;60.36;99023.44;6253095;27;96471;-62
2022/11/08 02:20:58;;;;;;;;;18.60;17.60;;;;;10.88;60.24;99000.94;6243611;27;97090;-62
2022/11/08 02:24:08;;;;;;;;;17.60;15.60;;;;;10.93;60.36;99011.06;6250601;27;96104;-61
2022/11/08 02:27:13;;;;;;;;;16.50;14.50;;;;;10.84;60.23;99016.75;6254041;27;96404;-61
2022/11/08 02:30:16;;;;;;;;;18.40;17.80;;;;;10.71;60.87;99006.03;6251571;27;96313;-62
2022/11/08 02:33:22;;;;;;;;;21.00;19.00;;;;;10.83;60.57;99008.88;6236412;27;96568;-61
2022/11/08 02:36:25;;;;;;;;;15.00;14.25;;;;;10.81;60.09;99019.03;6244465;27;96215;-62
2022/11/08 02:39:31;;;;;;;;;18.00;17.20;;;;;10.79;59.88;99015.75;6240457;27;97614;-61
2022/11/08 02:42:38;;;;;;;;;15.75;15.50;;;;;10.78;59.87;99016.78;6255187;27;96587;-62
2022/11/08 02:45:41;;;;;;;;;13.00;13.00;;;;;10.75;60.64;99019.94;6212470;27;96828;-61
2022/11/08 02:48:44;;;;;;;;;17.75;15.00;;;;;10.73;61.39;99012.06;6236877;27;97844;-62
2022/11/08 02:51:47;;;;;;;;;20.00;17.80;;;;;10.77;61.48;99015.97;6250984;27;96330;-63
2022/11/08 02:54:52;;;;;;;;;16.00;16.00;;;;;10.77;61.30;99018.66;6238416;27;96493;-63
2022/11/08 02:57:56;;;;;;;;;16.60;14.60;;;;;10.73;60.48;99016.63;6242031;27;96328;-62
2022/11/08 03:00:59;;;;;;;;;17.20;16.00;;;;;10.63;60.46;99027.91;6256308;27;96861;-62
2022/11/08 03:04:03;;;;;;;;;17.00;16.00;;;;;10.57;60.47;99015.28;6239744;27;96645;-62
2022/11/08 03:07:06;;;;;;;;;16.00;15.00;;;;;10.56;61.76;99016.31;6243761;27;96959;-64
2022/11/08 03:10:12;;;;;;;;;14.00;14.00;;;;;10.54;62.21;99023.00;6247186;27;96245;-64
2022/11/08 03:13:15;;;;;;;;;15.00;14.00;;;;;10.50;62.23;99027.16;6228550;27;96791;-62
2022/11/08 03:16:18;;;;;;;;;17.00;15.00;;;;;10.43;62.00;99019.94;6213088;27;96728;-63
2022/11/08 03:19:22;;;;;;;;;15.40;14.00;;;;;10.39;61.79;99029.50;6246595;27;96659;-62
2022/11/08 03:22:25;;;;;;;;;17.50;15.50;;;;;10.35;61.14;99025.59;6243078;27;96430;-62
2022/11/08 03:25:30;;;;;;;;;12.75;12.00;;;;;10.18;61.11;99000.19;6249515;27;96644;-63
2022/11/08 03:28:34;;;;;;;;;16.40;14.00;;;;;10.32;60.87;99028.72;6231906;27;96750;-62
2022/11/08 03:31:37;;;;;;;;;15.75;14.00;;;;;10.31;60.76;99023.56;6236706;27;96455;-62
2022/11/08 03:34:40;;;;;;;;;13.60;13.00;;;;;10.19;60.50;99001.84;6248258;27;96560;-63
2022/11/08 03:37:50;;;;;;;;;15.20;13.20;;;;;10.34;60.97;99029.34;6243544;27;96479;-62
2022/11/08 03:40:55;;;;;;;;;14.00;14.00;;;;;10.34;60.76;99031.19;6245771;27;96498;-62
2022/11/08 03:43:58;;;;;;;;;14.25;14.25;;;;;10.35;61.27;99030.16;6237444;27;99689;-61
2022/11/08 03:47:02;;;;;;;;;11.20;11.00;;;;;10.36;61.38;99029.94;6245804;27;96893;-61
2022/11/08 03:50:06;;;;;;;;;20.00;16.40;;;;;10.31;60.85;99027.06;6240794;27;96291;-62
2022/11/08 03:53:09;;;;;;;;;15.00;13.80;;;;;10.28;61.57;99021.28;6239806;27;96781;-62
2022/11/08 03:56:14;;;;;;;;;15.40;13.80;;;;;10.31;61.72;99028.94;6237073;27;97963;-61
2022/11/08 03:59:17;;;;;;;;;16.00;15.00;;;;;10.26;61.77;99020.69;6240660;27;96655;-62
2022/11/08 04:02:21;;;;;;;;;14.60;13.80;;;;;10.28;60.78;99030.19;6257106;27;96364;-61
2022/11/08 04:05:24;;;;;;;;;15.00;14.00;;;;;10.29;60.98;99031.84;6248042;27;96390;-62
2022/11/08 04:08:28;;;;;;;;;16.40;15.00;;;;;10.30;61.29;99030.81;6248616;27;96340;-63
2022/11/08 04:21:34;;;;;;;;;14.00;12.00;;;;;10.35;61.53;99025.59;6251782;27;97043;-63
2022/11/08 04:24:37;;;;;;;;;11.40;11.00;;;;;10.38;62.28;99024.34;6251282;27;96929;-61
2022/11/08 04:27:42;;;;;;;;;10.00;9.75;;;;;10.40;63.45;99028.47;6250305;27;96355;-63
2022/11/08 04:30:45;;;;;;;;;13.00;12.00;;;;;10.42;63.28;99031.75;6253443;27;96321;-62
2022/11/08 04:33:49;;;;;;;;;13.20;12.20;;;;;10.47;62.95;99027.59;6249888;27;96218;-61
2022/11/08 04:36:52;;;;;;;;;14.50;11.50;;;;;10.47;63.21;99020.34;6245983;27;96404;-63
2022/11/08 04:39:56;;;;;;;;;14.50;11.50;;;;;10.50;63.60;99013.69;6246071;27;96271;-62
2022/11/08 04:43:01;;;;;;;;;13.00;12.00;;;;;10.52;63.89;99014.28;6237080;27;96473;-61
2022/11/08 04:46:06;;;;;;;;;14.50;13.00;;;;;10.52;63.74;99017.81;6249104;27;96802;-62
2022/11/08 04:49:09;;;;;;;;;10.60;10.60;;;;;10.35;63.62;98987.88;6252803;27;96337;-63
2022/11/08 04:52:12;;;;;;;;;14.00;13.00;;;;;10.50;62.17;99011.00;6236027;27;96773;-62
2022/11/08 04:55:16;;;;;;;;;13.40;12.00;;;;;10.46;61.36;99009.78;6252272;27;97243;-61
2022/11/08 04:58:21;;;;;;;;;11.80;11.00;;;;;10.42;62.10;99010.19;6254839;27;96535;-61
2022/11/08 05:01:26;;;;;;;;;13.00;12.40;;;;;10.39;63.37;99005.25;6212071;27;97077;-63
2022/11/08 05:04:30;;;;;;;;;10.25;9.75;;;;;10.37;63.05;99011.88;6255039;27;96925;-62
2022/11/08 05:07:33;;;;;;;;;13.00;12.00;;;;;10.36;62.49;99008.38;6245787;27;97642;-63
2022/11/08 05:10:36;;;;;;;;;12.60;12.60;;;;;10.36;61.47;99005.69;6256876;27;96315;-61
2022/11/08 05:13:42;;;;;;;;;12.50;11.00;;;;;10.36;62.54;99008.38;6230625;27;96451;-61
2022/11/08 05:16:45;;;;;;;;;13.00;12.00;;;;;10.37;62.59;99006.50;6243058;27;96736;-61
2022/11/08 05:23:25;;;;;;;;;13.60;12.00;;;;;10.31;61.75;99002.81;6231973;27;96630;-61
2022/11/08 05:26:29;;;;;;;;;13.25;12.25;;;;;10.28;61.63;99003.25;6255262;27;96524;-63
2022/11/08 05:29:33;;;;;;;;;13.00;12.00;;;;;10.22;61.88;98996.03;6244772;27;97017;-61
2022/11/08 05:32:43;;;;;;;;;12.60;12.60;;;;;10.21;62.57;98999.78;6241496;27;96367;-61
2022/11/08 05:35:47;;;;;;;;;11.00;11.00;;;;;10.20;62.85;99003.53;6256809;27;96968;-61
2022/11/08 05:38:50;;;;;;;;;11.00;11.00;;;;;10.16;61.86;99007.69;6246695;27;96580;-63
2022/11/08 05:41:54;;;;;;;;;12.40;12.00;;;;;10.16;62.35;99010.38;6258101;27;96495;-61
2022/11/08 05:44:59;;;;;;;;;15.00;14.00;;;;;10.16;62.48;99004.16;6251734;27;97049;-62
2022/11/08 05:48:10;;;;;;;;;10.80;10.40;;;;;10.29;63.53;99015.69;6253396;27;96868;-61
2022/11/08 05:51:14;;;;;;;;;11.50;11.00;;;;;10.25;62.66;99010.94;6238449;27;96408;-62
2022/11/08 05:54:17;;;;;;;;;13.40;12.00;;;;;10.36;62.34;99021.84;6239136;27;96601;-61
2022/11/08 05:57:22;;;;;;;;;11.00;10.20;;;;;10.36;62.17;99002.97;6248530;27;96036;-62
2022/11/08 06:00:27;;;;;;;;;13.40;12.60;;;;;11.17;61.13;99024.53;6252212;27;96312;-65
2022/11/08 06:03:30;;;;;;;;;13.40;12.40;;;;;12.14;57.90;99026.38;6239779;27;96476;-62
2022/11/08 06:06:34;;;;;;;;;14.20;11.60;;;;;13.25;54.03;99027.56;6259876;27;97629;-62
2022/11/08 06:09:38;;;;;;;;;12.00;12.00;;;;;14.43;50.77;99033.34;6245540;27;96511;-63
2022/11/08 06:12:42;;;;;;;;;12.00;11.60;;;;;15.68;48.23;99032.97;6222508;27;96542;-63
2022/11/08 06:15:46;;;;;;;;;13.00;12.40;;;;;16.88;44.80;99040.91;6214127;27;97037;-64
2022/11/08 06:18:50;;;;;;;;;14.00;13.00;;;;;17.95;41.09;99041.66;6252441;27;96295;-63
2022/11/08 06:21:53;;;;;;;;;16.25;14.50;;;;;18.99;39.19;99036.78;6250311;27;96266;-62
2022/11/08 06:24:56;;;;;;;;;13.00;12.50;;;;;19.90;36.97;99044.06;6249891;27;97730;-62
2022/11/08 06:28:00;;;;;;;;;10.50;10.50;;;;;20.87;35.58;99045.22;6241288;27;96639;-62
2022/11/08 06:31:05;;;;;;;;;13.60;12.60;;;;;21.79;33.96;99046.13;6250431;27;96642;-62
2022/11/08 06:34:09;;;;;;;;;13.00;12.00;;;;;22.55;31.80;99047.94;6224975;27;96317;-64
2022/11/08 06:37:12;;;;;;;;;13.40;13.00;;;;;23.41;31.10;99043.06;6241008;27;97671;-63
2022/11/08 06:40:16;;;;;;;;;12.25;12.00;;;;;24.16;29.97;99051.84;6227633;27;98442;-63
2022/11/08 06:43:20;;;;;;;;;13.60;12.60;;;;;24.87;28.81;99059.44;6224344;27;98498;-64
2022/11/08 06:46:26;;;;;;;;;10.60;10.60;;;;;25.30;27.88;99051.50;6249314;27;96473;-63
2022/11/08 06:49:29;;;;;;;;;12.00;11.00;;;;;25.49;27.57;99061.53;6235981;28;96392;-67
2022/11/08 06:52:33;;;;;;;;;13.75;12.00;;;;;25.32;28.12;99059.44;6253470;27;97619;-62
2022/11/08 06:55:36;;;;;;;;;12.00;11.00;;;;;25.27;28.50;99065.09;6244663;27;96202;-63
2022/11/08 06:58:40;;;;;;;;;18.50;16.00;;;;;25.93;27.77;99050.44;6223139;27;97176;-63
2022/11/08 07:01:44;;;;;;;;;14.00;13.00;;;;;27.14;26.08;99066.16;6248695;27;97718;-62
2022/11/08 07:04:48;;;;;;;;;13.40;13.40;;;;;28.11;25.01;99072.03;6233837;27;97279;-62
2022/11/08 07:07:51;;;;;;;;;14.40;13.00;;;;;28.96;24.40;99069.94;6249183;27;98049;-63
2022/11/08 07:10:55;;;;;;;;;12.00;11.40;;;;;29.73;23.65;99084.25;6250536;27;96717;-63
2022/11/08 07:13:58;;;;;;;;;14.00;12.00;;;;;30.17;22.83;99075.09;6244329;27;96337;-64
2022/11/08 07:17:03;;;;;;;;;16.00;16.00;;;;;30.34;22.25;99066.56;6232091;27;96888;-62
2022/11/08 07:20:07;;;;;;;;;14.00;12.00;;;;;30.57;22.70;99066.91;6236480;27;96422;-62
2022/11/08 07:23:11;;;;;;;;;15.00;13.00;;;;;30.98;21.83;99071.38;6240674;27;96508;-66
2022/11/08 07:26:15;;;;;;;;;17.00;16.00;;;;;31.53;21.33;99067.81;6239773;27;96320;-66
2022/11/08 07:29:18;;;;;;;;;18.00;16.60;;;;;32.18;20.74;99068.38;6234394;27;98586;-66
2022/11/08 07:32:23;;;;;;;;;14.20;13.20;;;;;32.76;20.01;99069.41;6244322;27;96461;-65
2022/11/08 07:35:28;;;;;;;;;18.40;17.40;;;;;33.32;19.75;99066.28;6254964;27;96509;-65
2022/11/08 07:38:31;;;;;;;;;17.00;15.40;;;;;33.67;19.27;99066.16;6256671;27;96615;-65
2022/11/08 07:41:34;;;;;;;;;17.40;17.00;;;;;34.04;19.45;99063.66;6248884;27;97139;-64
2022/11/08 07:44:38;;;;;;;;;17.20;16.00;;;;;34.08;18.64;99062.53;6248671;27;96287;-64
2022/11/08 07:47:43;;;;;;;;;20.00;20.00;;;;;34.16;18.89;99055.09;6255492;27;96338;-65
2022/11/08 07:50:46;;;;;;;;;24.80;23.00;;;;;34.35;18.64;99053.03;6239199;27;96661;-65
2022/11/08 07:53:50;;;;;;;;;27.00;23.60;;;;;34.61;18.37;99052.22;6250958;27;97717;-66
2022/11/08 07:56:53;;;;;;;;;23.00;21.00;;;;;35.09;18.34;99049.72;6246108;27;96651;-66
2022/11/08 07:59:56;;;;;;;;;22.50;20.50;;;;;35.57;17.55;99045.91;6251901;27;97582;-65
2022/11/08 08:03:06;;;;;;;;;20.60;20.60;;;;;36.02;17.88;99050.38;6237970;27;96477;-64
2022/11/08 08:06:09;;;;;;;;;21.00;20.50;;;;;36.42;16.75;99041.13;6236361;27;96436;-64
2022/11/08 08:09:13;;;;;;;;;20.00;18.80;;;;;37.00;16.18;99036.66;6243597;27;97318;-64
2022/11/08 08:12:16;;;;;;;;;21.40;20.40;;;;;37.42;16.06;99036.88;6237670;27;96998;-64
2022/11/08 08:15:20;;;;;;;;;19.00;19.00;;;;;37.88;16.23;99041.81;6246476;27;99558;-64
2022/11/08 08:18:24;;;;;;;;;18.00;17.40;;;;;38.43;15.62;99045.06;6250478;27;96822;-65
2022/11/08 08:21:27;;;;;;;;;22.00;20.00;;;;;39.00;15.17;99032.50;6258682;27;96415;-65
2022/11/08 08:24:31;;;;;;;;;19.60;18.00;;;;;39.54;15.02;99029.47;6257406;27;96846;-66
2022/11/08 08:27:34;;;;;;;;;17.20;16.80;;;;;39.82;14.02;99029.31;6250510;27;96285;-67
2022/11/08 08:30:39;;;;;;;;;18.00;17.00;;;;;40.30;13.90;99028.56;6244614;27;97253;-65
2022/11/08 08:33:44;;;;;;;;;18.00;16.75;;;;;40.76;13.75;99019.66;6247696;27;97521;-68
2022/11/08 08:36:47;;;;;;;;;17.40;15.60;;;;;41.36;13.48;99018.91;6247913;27;96400;-65
2022/11/08 08:39:50;;;;;;;;;15.20;14.80;;;;;41.68;13.12;99016.47;6231873;27;96876;-65
2022/11/08 08:42:55;;;;;;;;;18.00;17.00;;;;;42.09;12.53;99016.22;6252627;27;97636;-67
2022/11/08 08:46:00;;;;;;;;;15.60;15.00;;;;;42.30;12.87;99015.88;6244500;27;96291;-66
2022/11/08 08:49:05;;;;;;;;;17.00;15.40;;;;;42.31;12.30;99011.03;6250457;27;97515;-66
2022/11/08 08:52:08;;;;;;;;;19.60;19.00;;;;;42.26;12.49;99017.16;6255019;27;96496;-65
2022/11/08 08:55:11;;;;;;;;;23.00;21.00;;;;;42.27;12.58;99007.47;6249847;27;96686;-65
2022/11/08 08:58:15;;;;;;;;;15.60;14.20;;;;;42.04;12.41;99018.72;6248511;27;96468;-67
2022/11/08 09:01:18;;;;;;;;;20.00;18.00;;;;;42.17;12.74;99014.88;6249026;27;96437;-66
2022/11/08 09:04:43;;;;;;;;;24.00;22.00;;;;;42.24;12.55;99013.94;6251744;27;96574;-67
2022/11/08 09:07:46;;;;;;;;;23.50;22.50;;;;;42.35;12.45;99015.38;6254750;27;96208;-66
2022/11/08 09:10:53;;;;;;;;;22.60;21.00;;;;;42.78;12.38;99014.59;6247685;27;96402;-65
2022/11/08 09:13:56;;;;;;;;;20.00;19.00;;;;;43.03;12.51;99003.56;6261013;27;96499;-66
2022/11/08 09:17:00;;;;;;;;;24.00;22.00;;;;;43.22;11.85;99009.69;6249415;27;96504;-65
2022/11/08 09:20:05;;;;;;;;;21.60;19.60;;;;;43.47;11.86;99007.13;6253967;27;96281;-67
2022/11/08 09:23:10;;;;;;;;;19.67;19.67;;;;;43.56;11.76;99004.47;6229928;27;96373;-66
2022/11/08 09:26:13;;;;;;;;;16.60;15.00;;;;;43.56;11.81;99004.47;6251551;27;96237;-65
2022/11/08 09:29:16;;;;;;;;;18.50;17.50;;;;;43.32;11.80;99006.59;6248826;27;96483;-65
2022/11/08 09:32:20;;;;;;;;;12.40;12.00;;;;;43.62;12.02;98994.19;6249274;27;97704;-66
2022/11/08 09:35:45;;;;;;;;;9.25;9.00;;;;;43.90;11.47;98993.53;6251233;27;96853;-65
2022/11/08 09:38:49;;;;;;;;;10.20;10.00;;;;;43.90;11.35;98998.41;6248027;27;96105;-64
2022/11/08 09:42:21;;;;;;;;;5.00;4.00;;;;;43.05;10.90;98998.25;6239453;27;97020;-65
2022/11/08 09:45:27;;;;;;;;;2.00;2.00;;;;;42.80;11.58;98992.31;6233900;27;96314;-65
2022/11/08 09:48:35;;;;;;;;;1.00;1.00;;;;;42.78;11.13;99008.94;6245894;27;96308;-66
2022/11/08 09:51:41;;;;;;;;;2.00;2.00;;;;;42.63;11.45;98999.88;6247575;27;96256;-65
2022/11/08 09:54:47;;;;;;;;;3.00;3.00;;;;;42.25;11.99;98985.19;6224501;27;98540;-65
2022/11/08 09:58:02;;;;;;;;;2.40;2.00;;;;;42.75;11.64;98998.47;6209634;28;97036;-66
2022/11/08 10:01:10;;;;;;;;;2.00;2.00;;;;;42.63;11.39;98997.03;6250128;27;96815;-65
2022/11/08 10:04:16;;;;;;;;;2.00;2.00;;;;;42.58;11.14;99000.38;6246379;27;96696;-65
2022/11/08 10:07:33;;;;;;;;;2.00;2.00;;;;;42.45;11.70;98999.41;6229558;27;96633;-65
2022/11/08 10:10:44;;;;;;;;;4.00;4.00;;;;;42.19;11.83;98994.59;6244197;27;96670;-67
2022/11/08 10:14:02;;;;;;;;;12.00;10.60;;;;;42.37;11.99;98991.50;6250969;27;96791;-65
2022/11/08 10:17:24;;;;;;;;;10.00;10.00;;;;;42.44;12.25;98985.69;6227404;28;96666;-65
2022/11/08 10:20:39;;;;;;;;;6.00;5.00;;;;;42.69;12.09;98986.03;6239764;27;96283;-65
2022/11/08 10:23:46;;;;;;;;;3.00;3.00;;;;;42.41;11.11;98978.84;6221717;27;96642;-65
2022/11/08 10:26:52;;;;;;;;;6.00;5.00;;;;;42.17;11.86;98989.38;6228595;28;96283;-64
2022/11/08 10:30:01;;;;;;;;;3.60;3.60;;;;;42.25;11.52;98978.72;6258857;27;96619;-65
2022/11/08 10:33:16;;;;;;;;;6.00;5.00;;;;;42.16;11.63;98972.81;6230271;27;96306;-65
2022/11/08 10:36:27;;;;;;;;;3.00;3.00;;;;;42.25;11.78;98962.50;6240380;28;96885;-65
2022/11/08 10:39:41;;;;;;;;;4.40;4.00;;;;;42.41;11.86;98961.84;6246697;27;96197;-66
2022/11/08 10:42:47;;;;;;;;;2.20;2.00;;;;;42.31;11.91;98958.00;6223734;27;98426;-64
2022/11/08 10:45:51;;;;;;;;;2.60;2.60;;;;;42.40;11.44;98957.41;6249910;27;96343;-66
2022/11/08 10:48:58;;;;;;;;;4.00;3.00;;;;;42.61;11.81;98957.00;6234742;27;97004;-66
2022/11/08 10:52:18;;;;;;;;;4.00;3.00;;;;;42.60;11.25;98938.38;6247279;27;96758;-65
2022/11/08 10:55:29;;;;;;;;;2.00;2.00;;;;;42.59;10.75;98950.97;6242570;27;96389;-66
2022/11/08 10:58:38;;;;;;;;;1.80;1.80;;;;;41.91;10.92;98940.06;6213779;27;96687;-66
2022/11/08 11:01:50;;;;;;;;;1.25;1.25;;;;;41.99;10.94;98937.09;6227472;27;97215;-66
2022/11/08 11:05:20;;;;;;;;;1.00;1.00;;;;;41.91;11.28;98939.25;6226091;27;96918;-67
2022/11/08 11:08:24;;;;;;;;;2.00;2.00;;;;;41.79;11.16;98926.47;6231106;27;99265;-64
2022/11/08 11:11:37;;;;;;;;;2.00;2.00;;;;;41.67;11.12;98915.75;6235889;28;98221;-67
2022/11/08 11:14:40;;;;;;;;;1.00;1.00;;;;;41.29;11.54;98869.88;6253402;27;96185;-66
2022/11/08 11:17:45;;;;;;;;;1.00;1.00;;;;;41.46;11.87;98890.63;6250922;27;96471;-67
2022/11/08 11:21:06;;;;;;;;;1.00;1.00;;;;;41.36;11.66;98886.72;6238718;27;96329;-65
2022/11/08 11:24:12;;;;;;;;;1.00;1.00;;;;;41.43;11.45;98900.75;6257014;27;96321;-66
2022/11/08 11:27:25;;;;;;;;;1.00;1.00;;;;;41.19;11.65;98901.16;6254686;27;96329;-67
2022/11/08 11:30:31;;;;;;;;;1.00;1.00;;;;;41.32;11.75;98902.16;6239404;27;96869;-70
2022/11/08 11:33:44;;;;;;;;;1.00;1.00;;;;;41.35;11.66;98882.28;6234395;27;96787;-65
2022/11/08 11:36:53;;;;;;;;;1.00;1.00;;;;;41.42;11.84;98895.53;6249302;27;96461;-64
2022/11/08 11:40:15;;;;;;;;;1.00;1.00;;;;;41.45;11.40;98892.66;6230914;27;98693;-66
2022/11/08 11:43:27;;;;;;;;;1.00;1.00;;;;;41.33;11.72;98898.09;6251199;27;96868;-65
2022/11/08 11:46:47;;;;;;;;;1.00;1.00;;;;;41.38;11.84;98894.78;6251688;27;96280;-65
2022/11/08 11:49:52;;;;;;;;;2.00;2.00;;;;;41.22;11.80;98894.63;6243225;27;96236;-64
2022/11/08 11:52:56;;;;;;;;;2.00;1.40;;;;;41.25;11.77;98880.41;6240276;27;96479;-64
2022/11/08 11:56:34;;;;;;;;;1.20;1.00;;;;;41.16;11.84;98877.31;6251244;27;96641;-64
2022/11/08 12:00:03;;;;;;;;;1.00;1.00;;;;;40.99;11.79;98882.00;6216898;27;96775;-65
2022/11/08 12:03:38;;;;;;;;;1.00;1.00;;;;;40.85;11.67;98881.41;6236797;27;96592;-68
2022/11/08 12:06:51;;;;;;;;;2.00;2.00;;;;;40.42;11.96;98872.66;6232610;27;97079;-67
2022/11/08 12:10:12;;;;;;;;;2.00;2.00;;;;;39.87;12.60;98870.78;6257279;27;96646;-64
2022/11/08 12:13:24;;;;;;;;;3.00;3.00;;;;;39.42;12.79;98862.28;6243894;27;96245;-65
2022/11/08 12:16:37;;;;;;;;;2.00;2.00;;;;;39.12;12.56;98870.53;6242700;27;96317;-66
2022/11/08 12:19:55;;;;;;;;;3.00;3.00;;;;;38.44;13.30;98858.78;6252007;27;96562;-65
2022/11/08 12:23:20;;;;;;;;;2.00;2.00;;;;;37.34;14.12;98863.69;6240811;27;96924;-65
2022/11/08 12:26:29;;;;;;;;;2.00;2.00;;;;;36.38;15.00;98859.78;6220935;27;98831;-65
2022/11/08 12:29:43;;;;;;;;;3.00;2.00;;;;;35.37;15.40;98856.66;6218826;27;96724;-68
2022/11/08 12:33:15;;;;;;;;;2.00;2.00;;;;;34.57;16.53;98846.16;6232955;27;97693;-65
2022/11/08 12:36:27;;;;;;;;;2.00;1.40;;;;;34.01;17.03;98849.00;6218764;27;97246;-67
2022/11/08 12:39:37;;;;;;;;;2.00;2.00;;;;;33.51;17.64;98851.81;6245828;27;96497;-66
2022/11/08 12:42:58;;;;;;;;;3.00;3.00;;;;;33.08;17.86;98849.44;6236550;27;96970;-67
2022/11/08 12:46:11;;;;;;;;;3.00;2.00;;;;;32.62;18.59;98840.16;6234555;27;96835;-65
2022/11/08 12:49:37;;;;;;;;;2.60;2.00;;;;;32.49;18.57;98845.09;6236560;27;96486;-65
2022/11/08 12:52:55;;;;;;;;;2.25;2.00;;;;;32.05;18.61;98833.38;6240188;27;96408;-65
2022/11/08 12:56:04;;;;;;;;;3.00;3.00;;;;;31.93;18.85;98855.78;6255422;27;96341;-64
2022/11/08 12:59:18;;;;;;;;;3.00;3.00;;;;;31.28;19.49;98816.38;6246080;27;98991;-64
2022/11/08 13:02:24;;;;;;;;;3.25;3.00;;;;;31.08;20.10;98827.81;6226919;27;96646;-65
2022/11/08 13:05:35;;;;;;;;;3.80;3.00;;;;;30.96;19.65;98834.25;6234848;27;96786;-63
2022/11/08 13:08:46;;;;;;;;;3.00;3.00;;;;;30.77;20.14;98832.16;6254784;27;96272;-63
2022/11/08 13:12:00;;;;;;;;;3.00;3.00;;;;;30.60;20.37;98832.47;6255332;27;97049;-64
2022/11/08 13:15:16;;;;;;;;;4.20;3.20;;;;;30.47;21.25;98817.00;6221232;27;97565;-65
2022/11/08 13:18:33;;;;;;;;;5.00;5.00;;;;;30.40;21.38;98833.44;6253731;27;96761;-64
2022/11/08 13:21:40;;;;;;;;;3.20;3.20;;;;;30.17;22.21;98830.41;6218970;27;97585;-64
2022/11/08 13:24:44;;;;;;;;;5.00;5.00;;;;;30.00;22.22;98834.28;6252663;27;96863;-65
2022/11/08 13:27:49;;;;;;;;;4.00;4.00;;;;;29.73;22.29;98825.84;6234154;27;97202;-63
2022/11/08 13:31:01;;;;;;;;;4.00;3.80;;;;;29.22;22.59;98828.16;6250962;27;96396;-65
2022/11/08 13:34:19;;;;;;;;;4.80;4.40;;;;;28.88;23.42;98837.69;6255460;27;96428;-65
2022/11/08 13:37:42;;;;;;;;;5.00;4.00;;;;;28.75;23.18;98836.03;6227348;27;98467;-64
2022/11/08 13:41:11;;;;;;;;;4.25;4.00;;;;;28.50;23.68;98835.09;6252400;27;96451;-63
2022/11/08 13:44:47;;;;;;;;;4.33;4.00;;;;;28.18;24.17;98836.69;6230109;28;96987;-63
2022/11/08 13:47:57;;;;;;;;;5.40;4.40;;;;;27.90;24.33;98830.88;6250578;27;96398;-63
2022/11/08 13:51:28;;;;;;;;;4.25;4.25;;;;;27.58;24.84;98832.38;6247010;27;96390;-63
2022/11/08 13:54:49;;;;;;;;;3.00;3.00;;;;;27.35;25.31;98824.66;6245375;27;97515;-65
2022/11/08 13:57:59;;;;;;;;;5.00;5.00;;;;;27.17;25.59;98829.47;6245760;27;96622;-63
2022/11/08 14:01:04;;;;;;;;;5.00;4.80;;;;;26.97;26.23;98830.19;6254661;27;96558;-63
2022/11/08 14:04:24;;;;;;;;;5.00;4.50;;;;;26.79;26.02;98817.50;6249628;27;96309;-64
2022/11/08 14:07:33;;;;;;;;;4.80;4.80;;;;;26.60;26.52;98823.41;6243051;27;96622;-63
2022/11/08 14:11:02;;;;;;;;;5.00;4.00;;;;;26.39;27.00;98819.72;6260822;27;96299;-64
2022/11/08 14:14:44;;;;;;;;;3.80;3.80;;;;;26.18;27.09;98820.34;6256279;27;96792;-67
2022/11/08 14:17:52;;;;;;;;;4.00;4.00;;;;;25.91;27.50;98817.88;6169074;28;97398;-66
2022/11/08 14:20:56;;;;;;;;;5.00;4.75;;;;;25.48;27.81;98814.22;6173626;28;96669;-63
2022/11/08 14:23:59;;;;;;;;;4.00;3.20;;;;;25.17;28.12;98809.56;6160493;28;97336;-63
2022/11/08 14:27:04;;;;;;;;;6.00;6.00;;;;;24.74;28.89;98809.34;6174364;28;96514;-65
2022/11/08 14:30:15;;;;;;;;;4.20;4.00;;;;;24.34;29.73;98815.91;6178285;28;96583;-64
2022/11/08 14:33:21;;;;;;;;;6.00;5.00;;;;;23.90;30.35;98816.66;6166189;28;97103;-63
2022/11/08 14:36:27;;;;;;;;;5.00;4.00;;;;;23.54;30.98;98824.91;6176549;28;96524;-64
2022/11/08 14:39:33;;;;;;;;;6.00;6.00;;;;;23.16;32.19;98816.03;6177996;28;96664;-66
2022/11/08 14:42:44;;;;;;;;;7.00;6.00;;;;;22.85;32.30;98815.78;6173625;28;96559;-63
2022/11/08 14:45:48;;;;;;;;;4.00;4.00;;;;;22.55;33.16;98813.56;6170136;28;96380;-63
2022/11/08 14:48:54;;;;;;;;;5.00;5.00;;;;;22.28;33.74;98815.13;6219211;27;96472;-65
2022/11/08 14:52:21;;;;;;;;;5.00;5.00;;;;;21.96;33.96;98815.06;6250332;27;96770;-62
2022/11/08 14:55:25;;;;;;;;;6.00;6.00;;;;;21.68;35.00;98814.09;6213848;27;98948;-62